Time;durP1;ratioP1;P1;durP2;ratioP2;P2;SDS_P1;SDS_P2;PMS_P1;PMS_P2;Temp;Humidity;BMP_temperature;BMP_pressure;BME280_temperature;BME280_humidity;BME280_pressure;Samples;Min_cycle;Max_cycle;Signal;HPM_P1;HPM_P2
2022/06/15 00:00:44;;;;;;;13.00;7.50;;;;;;;14.80;77.45;93784.41;5110736;28;20045;-38
2022/06/15 00:03:12;;;;;;;10.90;7.25;;;;;;;14.85;77.55;93777.16;5109550;28;20035;-38
2022/06/15 00:05:38;;;;;;;27.33;7.03;;;;;;;14.92;76.98;93788.19;5110711;28;20023;-38
2022/06/15 00:08:04;;;;;;;7.43;5.45;;;;;;;14.85;76.52;93788.28;5110706;28;20053;-38
2022/06/15 00:10:29;;;;;;;8.43;5.18;;;;;;;14.66;76.70;93777.66;5110679;28;20161;-38
2022/06/15 00:12:55;;;;;;;5.97;5.40;;;;;;;14.62;77.03;93777.31;5114390;28;20525;-38
2022/06/15 00:15:20;;;;;;;7.18;5.32;;;;;;;14.55;77.34;93778.13;5130664;28;20026;-38
2022/06/15 00:17:46;;;;;;;5.72;5.22;;;;;;;14.54;77.79;93775.91;5132213;27;20030;-38
2022/06/15 00:20:11;;;;;;;6.47;5.88;;;;;;;14.54;78.32;93775.91;5134760;27;20098;-38
2022/06/15 00:22:38;;;;;;;7.70;5.47;;;;;;;14.49;77.38;93768.56;5134832;27;20069;-38
2022/06/15 00:25:04;;;;;;;7.03;6.28;;;;;;;14.35;78.34;93773.66;5134988;27;20080;-38
2022/06/15 00:27:29;;;;;;;5.65;5.15;;;;;;;14.19;78.51;93772.97;5134970;27;20023;-38
2022/06/15 00:29:55;;;;;;;5.95;5.40;;;;;;;14.16;77.92;93778.94;5134655;27;20556;-39
2022/06/15 00:32:20;;;;;;;7.95;5.50;;;;;;;14.15;77.51;93778.19;5134829;27;20480;-38
2022/06/15 00:34:45;;;;;;;12.82;5.18;;;;;;;14.13;77.94;93778.00;5134788;27;20471;-39
2022/06/15 00:37:11;;;;;;;7.78;5.68;;;;;;;14.13;78.34;93780.78;5121726;27;20484;-38
2022/06/15 00:39:38;;;;;;;11.27;7.00;;;;;;;14.07;78.90;93769.16;5113983;28;20032;-38
2022/06/15 00:42:04;;;;;;;7.55;5.90;;;;;;;14.12;78.39;93776.53;5114097;28;20027;-38
2022/06/15 00:44:39;;;;;;;14.77;6.70;;;;;;;14.04;78.51;93763.97;5113794;28;20053;-38
2022/06/15 00:47:18;;;;;;;10.52;6.32;;;;;;;14.01;78.67;93770.69;5113705;28;20518;-38
2022/06/15 00:49:48;;;;;;;11.25;6.35;;;;;;;14.04;79.01;93772.31;5112768;28;20043;-38
2022/06/15 00:52:22;;;;;;;7.13;6.43;;;;;;;13.94;78.71;93769.41;5112480;28;20532;-39
2022/06/15 00:54:49;;;;;;;6.00;5.40;;;;;;;13.99;78.29;93768.44;5112346;28;20515;-38
2022/06/15 00:57:15;;;;;;;9.75;6.18;;;;;;;14.05;78.20;93765.47;5112337;28;20031;-38
2022/06/15 00:59:53;;;;;;;7.18;5.93;;;;;;;14.09;77.84;93780.44;5113790;28;20412;-38
2022/06/15 01:02:19;;;;;;;6.05;5.15;;;;;;;13.94;77.54;93777.00;5113547;27;20106;-38
2022/06/15 01:04:52;;;;;;;10.63;5.78;;;;;;;13.69;78.13;93776.91;5113373;28;20035;-39
2022/06/15 01:07:39;;;;;;;6.57;5.78;;;;;;;13.71;78.22;93774.31;5113655;28;20127;-38
2022/06/15 01:10:23;;;;;;;6.68;5.47;;;;;;;13.72;78.57;93772.28;5113312;28;20032;-38
2022/06/15 01:13:00;;;;;;;6.65;5.55;;;;;;;13.62;78.67;93775.66;5113002;28;20066;-38
2022/06/15 01:15:50;;;;;;;6.05;5.43;;;;;;;13.73;77.44;93777.28;5113455;28;20019;-38
2022/06/15 01:18:53;;;;;;;7.38;6.00;;;;;;;13.68;78.09;93781.75;5112261;28;20027;-38
2022/06/15 01:21:40;;;;;;;7.68;5.13;;;;;;;13.59;77.54;93770.50;5113054;28;20023;-38
2022/06/15 01:24:40;;;;;;;7.30;4.60;;;;;;;13.51;76.96;93770.50;5112834;28;20039;-38
2022/06/15 01:27:30;;;;;;;6.18;4.85;;;;;;;13.53;76.93;93775.53;5112475;28;20023;-38
2022/06/15 01:30:01;;;;;;;4.80;4.32;;;;;;;13.58;76.81;93786.41;5112913;28;20415;-39
2022/06/15 01:32:48;;;;;;;6.15;4.68;;;;;;;13.56;76.86;93783.44;5117156;27;20381;-38
2022/06/15 01:35:34;;;;;;;8.38;5.55;;;;;;;13.34;77.66;93786.31;5133257;27;20084;-38
2022/06/15 01:38:19;;;;;;;7.07;4.90;;;;;;;13.17;77.93;93778.56;5133322;27;20117;-38
2022/06/15 01:40:49;;;;;;;6.60;5.35;;;;;;;13.21;77.95;93786.53;5132246;27;20030;-38
2022/06/15 01:43:18;;;;;;;9.98;5.97;;;;;;;13.19;78.31;93784.28;5126969;27;20059;-38
2022/06/15 01:45:44;;;;;;;;;;;;;;;13.17;78.37;93789.66;5111776;28;20436;-38
2022/06/15 01:48:11;;;;;;;12.80;8.45;;;;;;;13.15;78.38;93789.47;5111390;28;19907;-38
2022/06/15 01:50:59;;;;;;;14.23;8.50;;;;;;;13.13;78.64;93783.75;5111607;28;20038;-38
2022/06/15 01:53:52;;;;;;;10.98;7.80;;;;;;;13.18;78.64;93782.09;5111300;28;20488;-38
2022/06/15 01:56:23;;;;;;;8.25;6.30;;;;;;;13.14;78.29;93792.81;5100615;28;20035;-38
2022/06/15 01:58:56;;;;;;;7.10;5.28;;;;;;;13.15;77.67;93789.47;5112655;27;20416;-38
2022/06/15 02:01:46;;;;;;;12.23;5.15;;;;;;;12.90;77.72;93788.56;5111101;28;20020;-38
2022/06/15 02:04:33;;;;;;;5.50;5.00;;;;;;;12.90;78.13;93783.78;5111438;28;20441;-38
2022/06/15 02:07:33;;;;;;;9.00;5.25;;;;;;;13.03;78.27;93788.38;5111299;28;20035;-38
2022/06/15 02:10:03;;;;;;;7.40;5.20;;;;;;;12.99;78.03;93788.00;5112142;28;20020;-38
2022/06/15 02:13:05;;;;;;;7.25;4.55;;;;;;;12.94;77.65;93786.16;5111318;27;20026;-38
2022/06/15 02:15:33;;;;;;;7.53;4.68;;;;;;;12.87;77.46;93790.41;5132803;27;20488;-38
2022/06/15 02:18:01;;;;;;;14.10;4.82;;;;;;;13.00;76.67;93794.28;5131710;27;20038;-38
2022/06/15 02:20:36;;;;;;;6.38;4.40;;;;;;;13.00;76.35;93786.69;5131401;27;20052;-38
2022/06/15 02:23:03;;;;;;;8.80;4.50;;;;;;;12.98;76.46;93794.09;5131695;27;20114;-38
2022/06/15 02:25:33;;;;;;;7.30;4.88;;;;;;;12.82;76.85;93782.31;5131316;27;20023;-38
2022/06/15 02:27:59;;;;;;;4.28;3.88;;;;;;;12.61;77.17;93792.81;5131225;27;20117;-38
2022/06/15 02:30:26;;;;;;;6.28;4.57;;;;;;;12.64;76.87;93786.19;5112267;27;20088;-38
2022/06/15 02:32:52;;;;;;;4.97;4.47;;;;;;;12.69;76.62;93791.53;5112035;28;20027;-38
2022/06/15 02:35:19;;;;;;;8.82;4.28;;;;;;;12.71;77.25;93791.69;5111967;28;20665;-38
2022/06/15 02:37:46;;;;;;;11.02;4.82;;;;;;;12.57;77.78;93789.69;5111831;28;20085;-38
2022/06/15 02:40:20;;;;;;;10.95;4.40;;;;;;;12.65;76.98;93790.41;5111181;28;20028;-38
2022/06/15 02:42:46;;;;;;;6.78;4.28;;;;;;;12.61;77.58;93792.81;5111754;28;20033;-38
2022/06/15 02:45:29;;;;;;;5.60;5.03;;;;;;;12.61;77.41;93790.78;5111503;28;20127;-38
2022/06/15 02:47:55;;;;;;;11.77;4.60;;;;;;;12.62;78.18;93794.31;5110591;28;20103;-38
2022/06/15 02:50:22;;;;;;;7.25;4.75;;;;;;;12.55;78.14;93789.50;5110180;28;20027;-38
2022/06/15 02:53:00;;;;;;;6.95;4.80;;;;;;;12.51;78.38;93789.13;5110516;28;20038;-38
2022/06/15 02:55:26;;;;;;;11.60;5.57;;;;;;;12.54;77.86;93788.75;5110066;28;20124;-38
2022/06/15 02:58:01;;;;;;;8.57;5.55;;;;;;;12.35;78.44;93788.38;5110088;28;20106;-39
2022/06/15 03:00:27;;;;;;;7.20;4.93;;;;;;;12.47;78.09;93794.31;5110359;28;20035;-38
2022/06/15 03:02:53;;;;;;;7.72;5.13;;;;;;;12.57;77.58;93789.69;5111421;28;20442;-38
2022/06/15 03:05:18;;;;;;;8.75;5.13;;;;;;;12.53;78.40;93787.28;5111474;28;20023;-39
2022/06/15 03:07:44;;;;;;;6.15;5.55;;;;;;;12.61;78.18;93792.81;5111012;28;20062;-38
2022/06/15 03:10:10;;;;;;;14.60;5.00;;;;;;;12.60;77.96;93796.88;5111061;28;20416;-38
2022/06/15 03:12:35;;;;;;;8.15;5.40;;;;;;;12.59;77.67;93795.41;5110881;28;20118;-38
2022/06/15 03:15:00;;;;;;;6.38;4.85;;;;;;;12.62;77.51;93800.59;5111242;28;20040;-38
2022/06/15 03:17:26;;;;;;;4.97;4.47;;;;;;;12.54;77.51;93797.06;5110848;28;20547;-38
2022/06/15 03:19:52;;;;;;;10.05;5.55;;;;;;;12.57;77.46;93807.03;5110825;28;20043;-38
2022/06/15 03:22:17;;;;;;;6.20;5.20;;;;;;;12.58;77.35;93807.78;5111204;28;20038;-38
2022/06/15 03:24:43;;;;;;;6.85;4.80;;;;;;;12.55;77.24;93803.34;5113036;27;20343;-39
2022/06/15 03:27:08;;;;;;;7.68;4.28;;;;;;;12.51;77.74;93808.50;5131369;27;20411;-39
2022/06/15 03:29:36;;;;;;;4.85;4.32;;;;;;;12.54;78.24;93810.19;5131177;27;20400;-38
2022/06/15 03:32:01;;;;;;;6.55;4.65;;;;;;;12.46;78.30;93803.88;5131543;27;20038;-38
2022/06/15 03:34:27;;;;;;;11.73;4.05;;;;;;;12.34;78.46;93808.31;5131317;27;20027;-38
2022/06/15 03:36:52;;;;;;;20.80;4.75;;;;;;;12.35;77.73;93813.28;5131050;27;20035;-38
2022/06/15 03:39:18;;;;;;;15.68;4.55;;;;;;;12.26;77.69;93813.81;5131467;28;20023;-38
2022/06/15 03:41:43;;;;;;;6.07;4.63;;;;;;;12.28;78.40;93807.75;5131083;27;20480;-39
2022/06/15 03:44:10;;;;;;;5.43;3.95;;;;;;;12.26;78.76;93813.09;5118403;27;20024;-39
2022/06/15 03:46:36;;;;;;;8.93;5.03;;;;;;;12.30;78.89;93819.00;5110361;28;20489;-38
2022/06/15 03:49:01;;;;;;;5.60;4.68;;;;;;;12.33;78.87;93817.91;5110536;28;20080;-39
2022/06/15 03:51:27;;;;;;;4.60;4.20;;;;;;;12.48;78.57;93817.91;5111455;28;20023;-38
2022/06/15 03:53:52;;;;;;;6.68;4.70;;;;;;;12.50;78.36;93816.06;5115054;28;20027;-38
2022/06/15 03:56:18;;;;;;;9.20;4.80;;;;;;;12.50;78.54;93821.63;5114629;28;20111;-38
2022/06/15 03:58:45;;;;;;;10.63;4.63;;;;;;;12.42;79.19;93823.66;5114948;28;20032;-38
2022/06/15 04:01:11;;;;;;;8.30;4.72;;;;;;;12.58;78.71;93827.88;5114892;28;20401;-39
2022/06/15 04:03:36;;;;;;;9.07;5.43;;;;;;;12.54;79.01;93821.25;5114855;28;20038;-38
2022/06/15 04:06:02;;;;;;;7.35;4.95;;;;;;;12.62;79.41;93824.78;5114631;28;20026;-38
2022/06/15 04:08:35;;;;;;;6.20;5.30;;;;;;;12.67;79.29;93826.59;5114841;28;20491;-38
2022/06/15 04:11:06;;;;;;;14.15;6.20;;;;;;;12.74;80.31;93821.09;5114548;28;20027;-38
2022/06/15 04:13:31;;;;;;;10.57;6.40;;;;;;;12.74;80.67;93820.34;5123592;27;20038;-38
2022/06/15 04:15:57;;;;;;;7.50;6.38;;;;;;;12.78;80.57;93823.47;5134844;27;20031;-39
2022/06/15 04:18:22;;;;;;;10.50;6.72;;;;;;;12.66;80.78;93814.06;5134897;27;20058;-39
2022/06/15 04:20:48;;;;;;;15.25;6.72;;;;;;;12.84;80.69;93818.50;5134316;27;20035;-39
2022/06/15 04:23:16;;;;;;;10.25;6.57;;;;;;;12.86;80.49;93824.94;5114223;28;20031;-39
2022/06/15 04:25:43;;;;;;;7.22;6.32;;;;;;;12.91;80.52;93835.13;5114471;28;20019;-38
2022/06/15 04:28:11;;;;;;;10.60;6.03;;;;;;;12.95;81.14;93838.25;5113316;28;20120;-39
2022/06/15 04:30:36;;;;;;;6.10;5.50;;;;;;;12.99;81.24;93834.38;5114109;28;20503;-38
2022/06/15 04:33:02;;;;;;;6.35;5.75;;;;;;;13.12;80.67;93834.97;5114342;28;20024;-39
2022/06/15 04:35:28;;;;;;;13.88;6.28;;;;;;;13.19;80.51;93839.03;5114008;28;20103;-38
2022/06/15 04:37:54;;;;;;;9.02;5.57;;;;;;;13.16;80.69;93840.13;5113933;28;20032;-38
2022/06/15 04:40:20;;;;;;;6.45;5.72;;;;;;;13.16;81.17;93827.00;5114011;28;20031;-39
2022/06/15 04:42:46;;;;;;;7.63;5.60;;;;;;;13.28;81.49;93827.34;5114054;28;20098;-38
2022/06/15 04:45:13;;;;;;;8.43;6.32;;;;;;;13.38;81.29;93837.28;5113949;28;20132;-39
2022/06/15 04:47:39;;;;;;;8.48;5.82;;;;;;;13.44;81.60;93828.78;5113894;28;20032;-38
2022/06/15 04:50:06;;;;;;;7.55;6.30;;;;;;;13.49;81.32;93819.56;5114055;28;20027;-38
2022/06/15 04:52:31;;;;;;;12.38;8.00;;;;;;;13.63;82.37;93838.19;5114009;28;20103;-39
2022/06/15 04:54:57;;;;;;;11.45;8.32;;;;;;;13.69;82.18;93841.50;5112226;28;20114;-39
2022/06/15 04:57:22;;;;;;;12.23;8.27;;;;;;;13.62;82.93;93825.59;5113894;28;20030;-39
2022/06/15 04:59:48;;;;;;;9.65;7.93;;;;;;;13.64;83.97;93838.94;5113854;28;20092;-39
2022/06/15 05:02:13;;;;;;;12.25;6.43;;;;;;;13.80;83.61;93828.50;5113749;28;20415;-39
2022/06/15 05:04:39;;;;;;;5.47;4.97;;;;;;;13.85;83.56;93835.88;5113059;28;20480;-39
2022/06/15 05:07:06;;;;;;;10.18;5.05;;;;;;;13.98;82.18;93833.63;5113317;28;20118;-38
2022/06/15 05:09:31;;;;;;;7.20;4.75;;;;;;;14.09;80.03;93840.78;5113644;28;20517;-39
2022/06/15 05:11:57;;;;;;;4.90;4.38;;;;;;;14.25;79.23;93847.75;5113280;28;20063;-39
2022/06/15 05:14:22;;;;;;;5.65;5.10;;;;;;;14.44;79.75;93845.25;5129712;27;20031;-38
2022/06/15 05:16:48;;;;;;;9.88;5.20;;;;;;;14.56;79.02;93840.72;5133733;27;20030;-39
2022/06/15 05:19:13;;;;;;;4.97;4.57;;;;;;;14.59;78.93;93847.94;5114329;27;20032;-39
2022/06/15 05:21:41;;;;;;;4.88;4.32;;;;;;;14.64;80.26;93849.75;5113229;28;20069;-39
2022/06/15 05:24:07;;;;;;;6.88;3.72;;;;;;;14.56;77.03;93828.88;5113106;28;20425;-39
2022/06/15 05:26:32;;;;;;;5.38;3.80;;;;;;;14.69;78.92;93850.84;5113245;28;20051;-39
2022/06/15 05:28:58;;;;;;;5.95;4.50;;;;;;;14.67;77.66;93840.28;5113294;28;20046;-39
2022/06/15 05:31:23;;;;;;;4.53;3.60;;;;;;;14.82;73.27;93854.09;5112801;28;20412;-39
2022/06/15 05:33:53;;;;;;;4.78;3.33;;;;;;;14.84;73.70;93854.25;5113183;28;20027;-38
2022/06/15 05:36:20;;;;;;;3.40;3.10;;;;;;;14.93;74.52;93850.84;5113139;28;20536;-38
2022/06/15 05:38:46;;;;;;;3.45;2.53;;;;;;;14.98;70.42;93857.50;5112741;28;20031;-39
2022/06/15 05:41:12;;;;;;;3.22;2.92;;;;;;;15.01;70.93;93853.56;5113058;28;20068;-39
2022/06/15 05:43:41;;;;;;;3.58;2.53;;;;;;;15.01;70.21;93859.88;5112547;28;20110;-39
2022/06/15 05:46:30;;;;;;;5.18;3.00;;;;;;;15.04;69.25;93855.97;5112484;28;20173;-39
2022/06/15 05:49:00;;;;;;;6.18;2.95;;;;;;;15.12;69.16;93856.63;5112526;28;20696;-39
2022/06/15 05:51:26;;;;;;;4.65;2.80;;;;;;;15.15;67.66;93858.28;5112465;28;20167;-38
2022/06/15 05:53:52;;;;;;;5.07;2.38;;;;;;;15.19;65.91;93861.41;5112543;28;20123;-38
2022/06/15 05:56:18;;;;;;;2.83;2.30;;;;;;;15.22;65.89;93862.31;5112308;28;20019;-38
2022/06/15 05:58:43;;;;;;;4.82;2.70;;;;;;;15.28;65.43;93873.94;5112688;28;20039;-38
2022/06/15 06:01:20;;;;;;;4.75;2.80;;;;;;;15.32;65.34;93867.97;5112659;28;20037;-38
2022/06/15 06:03:45;;;;;;;5.03;2.70;;;;;;;15.39;65.38;93870.69;5112547;28;20035;-39
2022/06/15 06:06:11;;;;;;;3.83;2.80;;;;;;;15.53;65.76;93874.66;5112268;28;20024;-39
2022/06/15 06:08:36;;;;;;;4.72;2.50;;;;;;;15.57;65.43;93882.59;5112458;27;20073;-38
2022/06/15 06:11:02;;;;;;;6.55;3.08;;;;;;;15.57;65.86;93871.47;5112461;28;20034;-39
2022/06/15 06:13:28;;;;;;;4.45;2.88;;;;;;;15.68;65.59;93876.56;5113911;27;20534;-39
2022/06/15 06:15:55;;;;;;;7.40;2.75;;;;;;;15.73;65.49;93867.22;5131672;27;20031;-38
2022/06/15 06:18:24;;;;;;;6.07;3.17;;;;;;;15.84;65.23;93872.31;5132608;27;20026;-39
2022/06/15 06:20:51;;;;;;;5.75;2.45;;;;;;;15.99;66.56;93877.69;5132774;27;20031;-38
2022/06/15 06:23:16;;;;;;;6.57;2.53;;;;;;;16.10;62.57;93877.22;5132426;27;20495;-39
2022/06/15 06:25:43;;;;;;;3.55;2.42;;;;;;;16.17;62.10;93876.38;5132678;27;20026;-39
2022/06/15 06:28:25;;;;;;;12.10;2.95;;;;;;;16.19;61.12;93879.34;5132703;27;20023;-39
2022/06/15 06:30:50;;;;;;;2.47;2.25;;;;;;;16.28;61.41;93873.09;5132701;27;20083;-38
2022/06/15 06:33:16;;;;;;;3.58;2.03;;;;;;;16.46;58.89;93871.00;5132521;27;20485;-39
2022/06/15 06:35:42;;;;;;;4.80;2.20;;;;;;;16.50;60.00;93877.66;5132429;27;20405;-39
2022/06/15 06:38:09;;;;;;;4.15;2.10;;;;;;;16.57;58.56;93874.03;5131296;27;20026;-39
2022/06/15 06:40:34;;;;;;;8.77;2.63;;;;;;;16.62;58.31;93870.25;5130875;27;20027;-39
2022/06/15 06:55:08;;;;;;;6.03;2.45;;;;;;;17.85;53.64;93870.53;5128469;27;20832;-39
2022/06/15 06:57:34;;;;;;;2.78;1.98;;;;;;;17.66;55.63;93856.56;5128443;27;20112;-40
2022/06/15 06:59:59;;;;;;;3.33;2.00;;;;;;;17.77;53.79;93867.88;5128319;27;20054;-40
2022/06/15 07:02:25;;;;;;;4.03;2.45;;;;;;;17.79;55.07;93865.25;5128243;27;20019;-40
2022/06/15 07:04:50;;;;;;;5.97;2.38;;;;;;;17.79;57.09;93868.03;5128237;27;20080;-39
2022/06/15 07:07:15;;;;;;;11.40;2.70;;;;;;;17.78;58.18;93860.25;5128457;27;20023;-40
2022/06/15 07:09:41;;;;;;;5.50;2.08;;;;;;;18.16;55.76;93863.06;5126576;27;20473;-40
2022/06/15 07:12:07;;;;;;;4.82;3.17;;;;;;;18.50;53.78;93870.41;5107477;28;20020;-40
2022/06/15 07:14:32;;;;;;;7.80;3.25;;;;;;;18.94;54.08;93853.97;5125671;28;20023;-39
2022/06/15 07:16:58;;;;;;;7.85;3.17;;;;;;;19.32;52.10;93861.44;5126187;27;20372;-40
2022/06/15 07:19:23;;;;;;;3.97;2.97;;;;;;;19.79;51.31;93866.09;5107451;28;20020;-40
2022/06/15 07:21:48;;;;;;;7.70;2.30;;;;;;;20.41;49.61;93861.06;5107434;28;20024;-39
2022/06/15 07:24:14;;;;;;;2.20;1.92;;;;;;;21.14;47.60;93869.94;5107249;28;20053;-40
2022/06/15 07:26:44;;;;;;;4.05;2.00;;;;;;;21.86;44.90;93868.00;5107368;28;20067;-41
2022/06/15 07:29:11;;;;;;;3.35;1.83;;;;;;;22.86;42.91;93863.16;5107374;28;20053;-40
2022/06/15 07:31:39;;;;;;;1.67;1.50;;;;;;;23.48;39.74;93858.09;5107225;28;20024;-37
2022/06/15 07:34:06;;;;;;;2.85;1.70;;;;;;;23.60;39.92;93864.38;5107230;28;20651;-38
2022/06/15 07:36:32;;;;;;;3.10;1.85;;;;;;;24.61;39.43;93863.84;5107183;28;20493;-38
2022/06/15 07:38:57;;;;;;;4.10;1.58;;;;;;;25.45;36.24;93865.06;5107432;28;20026;-38
2022/06/15 07:41:24;;;;;;;4.50;1.65;;;;;;;26.22;36.79;93863.56;5107324;28;20015;-39
2022/06/15 07:43:52;;;;;;;2.90;1.77;;;;;;;26.96;33.31;93865.91;5106984;28;20027;-39
2022/06/15 07:46:17;;;;;;;8.10;1.60;;;;;;;27.69;33.82;93874.41;5106900;28;20031;-39
2022/06/15 07:51:30;;;;;;;4.32;1.83;;;;;;;29.02;31.51;93876.22;5110941;28;20534;-39
2022/06/15 07:53:57;;;;;;;4.20;1.52;;;;;;;29.12;29.04;93862.31;5126108;27;20046;-39
2022/06/15 07:56:22;;;;;;;4.63;1.45;;;;;;;29.48;31.07;93880.53;5113232;28;20504;-38
2022/06/15 07:58:48;;;;;;;1.80;1.50;;;;;;;29.64;30.12;93874.63;5113763;28;20034;-39
2022/06/15 08:01:13;;;;;;;2.22;1.70;;;;;;;30.15;30.10;93877.53;5113490;28;20111;-38
2022/06/15 08:03:38;;;;;;;4.57;1.55;;;;;;;30.43;28.35;93881.19;5113338;28;20011;-39
2022/06/15 08:06:04;;;;;;;1.40;1.30;;;;;;;30.56;29.01;93874.41;5113351;28;20023;-39
2022/06/15 08:08:30;;;;;;;1.85;1.15;;;;;;;30.46;27.99;93873.41;5112458;28;20023;-38
2022/06/15 08:10:56;;;;;;;3.72;1.75;;;;;;;30.96;26.73;93882.56;5113156;28;20050;-40
2022/06/15 08:13:21;;;;;;;2.75;1.27;;;;;;;31.28;26.68;93877.63;5113241;28;20012;-39
2022/06/15 08:15:48;;;;;;;1.33;1.23;;;;;;;30.97;25.78;93878.31;5113484;28;20025;-38
2022/06/15 08:18:16;;;;;;;2.88;2.10;;;;;;;31.16;25.75;93872.38;5113451;28;20030;-38
2022/06/15 08:20:47;;;;;;;3.17;1.60;;;;;;;31.61;25.27;93876.28;5111991;28;20016;-39
2022/06/15 08:23:20;;;;;;;3.97;1.52;;;;;;;32.09;25.00;93872.34;5111775;28;20108;-39
2022/06/15 08:25:49;;;;;;;3.78;1.70;;;;;;;32.90;25.51;93871.00;5111805;28;20023;-38
2022/06/15 08:28:18;;;;;;;2.60;1.52;;;;;;;32.79;23.62;93884.41;5112052;28;20038;-38
2022/06/15 08:30:43;;;;;;;1.98;1.50;;;;;;;32.67;23.37;93883.47;5112049;28;20090;-37
2022/06/15 08:33:09;;;;;;;4.18;1.50;;;;;;;32.53;24.37;93880.38;5112910;28;20169;-38
2022/06/15 08:35:38;;;;;;;2.10;1.45;;;;;;;32.70;24.81;93877.09;5113077;28;20051;-38
2022/06/15 08:38:06;;;;;;;2.85;1.55;;;;;;;32.27;25.21;93874.13;5112816;27;20064;-39
2022/06/15 08:40:36;;;;;;;7.10;1.47;;;;;;;32.16;26.85;93878.91;5113093;27;20042;-38
2022/06/15 08:43:10;;;;;;;3.38;1.98;;;;;;;31.50;25.33;93883.88;5111503;28;20115;-38
2022/06/15 08:45:47;;;;;;;1.67;1.42;;;;;;;31.53;26.30;93888.25;5111788;28;20407;-38
2022/06/15 08:48:32;;;;;;;3.15;1.55;;;;;;;31.19;25.66;93890.97;5111685;28;20023;-39
2022/06/15 08:51:16;;;;;;;2.50;1.50;;;;;;;32.43;25.90;93880.88;5110749;28;20115;-39
2022/06/15 08:54:02;;;;;;;1.80;1.42;;;;;;;32.09;26.06;93880.19;5092135;28;20048;-38
2022/06/15 08:56:36;;;;;;;5.53;1.55;;;;;;;31.58;26.05;93886.22;5092104;28;20024;-39
2022/06/15 08:59:07;;;;;;;2.83;1.40;;;;;;;32.38;26.27;93881.50;5092117;28;20035;-39
2022/06/15 09:01:41;;;;;;;2.47;1.38;;;;;;;31.76;25.86;93886.59;5092324;28;20039;-38
2022/06/15 09:04:23;;;;;;;2.47;1.25;;;;;;;31.70;27.76;93875.06;5090972;28;20024;-39
2022/06/15 09:07:05;;;;;;;3.65;1.30;;;;;;;32.61;26.39;93886.97;5090844;28;20027;-39
2022/06/15 09:09:49;;;;;;;4.20;1.40;;;;;;;33.48;25.79;93885.59;5091856;28;20104;-39
2022/06/15 09:15:35;;;;;;;3.05;1.25;;;;;;;32.56;25.30;93891.16;5092045;28;20113;-38
2022/06/15 09:18:14;;;;;;;1.35;1.23;;;;;;;32.26;26.45;93881.22;5091630;28;20573;-39
2022/06/15 09:20:48;;;;;;;3.17;1.60;;;;;;;32.06;24.78;93873.72;5091597;28;20020;-41
2022/06/15 09:23:38;;;;;;;2.53;1.30;;;;;;;32.78;25.30;93885.84;5090594;28;20058;-39
2022/06/15 09:26:11;;;;;;;2.03;1.60;;;;;;;33.93;24.94;93887.69;5090338;28;20552;-41
2022/06/15 09:28:45;;;;;;;4.43;1.50;;;;;;;34.30;24.36;93880.31;5090427;28;20020;-39
2022/06/15 09:31:36;;;;;;;2.40;1.60;;;;;;;34.62;24.23;93888.56;5091441;28;20020;-39
2022/06/15 09:34:04;;;;;;;2.15;1.95;;;;;;;34.67;21.78;93882.19;5091336;28;20024;-40
2022/06/15 09:36:37;;;;;;;5.25;1.75;;;;;;;35.23;23.74;93882.00;5091208;28;20027;-40
2022/06/15 09:39:04;;;;;;;3.40;1.45;;;;;;;35.73;22.74;93878.81;5091280;28;20024;-39
2022/06/15 09:41:50;;;;;;;1.60;1.30;;;;;;;35.98;23.10;93885.44;5091202;28;20024;-39
2022/06/15 09:44:37;;;;;;;2.60;1.50;;;;;;;34.72;23.40;93892.25;5089890;28;20069;-38
2022/06/15 09:47:21;;;;;;;18.37;3.07;;;;;;;33.99;25.32;93882.03;5091169;28;20024;-39
2022/06/15 09:50:01;;;;;;;2.78;1.55;;;;;;;34.79;25.44;93890.19;5091360;28;20035;-40
2022/06/15 09:52:48;;;;;;;1.83;1.65;;;;;;;35.05;22.14;93890.44;5090933;28;20020;-40
2022/06/15 09:55:44;;;;;;;3.55;1.88;;;;;;;35.02;23.17;93883.97;5091044;28;20040;-39
2022/06/15 09:58:14;;;;;;;2.88;1.50;;;;;;;36.05;22.83;93884.75;5090029;28;20036;-39
2022/06/15 10:00:39;;;;;;;2.13;1.60;;;;;;;36.70;23.05;93880.00;5089601;28;20024;-40
2022/06/15 10:03:23;;;;;;;5.38;1.65;;;;;;;37.25;22.45;93870.03;5090701;28;20031;-39
2022/06/15 10:05:49;;;;;;;4.00;1.40;;;;;;;36.76;23.59;93885.78;5091641;28;20028;-42
2022/06/15 10:08:15;;;;;;;4.53;1.67;;;;;;;37.09;23.53;93877.94;5109875;28;20028;-40
2022/06/15 10:10:45;;;;;;;2.85;1.70;;;;;;;37.59;22.01;93871.47;5111306;28;20023;-40
2022/06/15 10:13:19;;;;;;;1.70;1.42;;;;;;;37.92;20.20;93878.66;5103285;28;20058;-41
2022/06/15 10:16:01;;;;;;;2.70;1.58;;;;;;;36.98;21.23;93876.47;5090561;28;20016;-39
2022/06/15 10:18:54;;;;;;;2.00;1.80;;;;;;;37.27;20.98;93871.47;5089137;28;20050;-41
2022/06/15 10:21:26;;;;;;;2.85;1.58;;;;;;;36.54;22.71;93879.94;5087555;28;20111;-39
2022/06/15 10:24:17;;;;;;;1.70;1.60;;;;;;;36.60;20.80;93885.75;5090377;28;20028;-40
2022/06/15 10:27:24;;;;;;;2.80;1.80;;;;;;;37.02;20.89;93885.13;5087355;28;20032;-41
2022/06/15 10:29:58;;;;;;;3.47;1.30;;;;;;;37.36;21.45;93876.53;5082817;28;20040;-41
2022/06/15 10:32:23;;;;;;;1.58;1.33;;;;;;;36.95;21.71;93877.94;5090410;28;20430;-40
2022/06/15 10:34:51;;;;;;;1.58;1.48;;;;;;;36.70;19.28;93882.88;5090383;28;20028;-44
2022/06/15 10:37:28;;;;;;;1.80;1.30;;;;;;;36.57;23.82;93878.53;5090365;28;20023;-41
2022/06/15 10:39:58;;;;;;;3.40;1.50;;;;;;;37.13;19.14;93875.78;5090746;28;20024;-40
2022/06/15 10:42:36;;;;;;;1.95;1.15;;;;;;;36.76;20.12;93868.50;5090213;28;20532;-41
2022/06/15 10:45:03;;;;;;;;;;;;;;;36.72;20.47;93876.41;5089661;28;20032;-39
2022/06/15 10:48:02;;;;;;;4.97;1.83;;;;;;;36.44;21.96;93874.16;5089021;28;19912;-39
2022/06/15 10:50:28;;;;;;;3.92;1.45;;;;;;;36.34;22.47;93868.38;5088260;28;20558;-43
2022/06/15 10:53:00;;;;;;;1.80;1.70;;;;;;;36.33;22.24;93869.78;5107366;28;20016;-41
2022/06/15 11:04:33;;;;;;;;;;;;;;;34.76;22.79;93857.88;5110946;28;20093;-41
2022/06/15 11:07:11;;;;;;;3.45;1.90;;;;;;;33.63;25.27;93861.50;5109171;28;19912;-39
2022/06/15 11:09:41;;;;;;;3.50;1.92;;;;;;;33.77;23.81;93838.75;5110649;28;20450;-41
2022/06/15 11:12:21;;;;;;;6.50;2.10;;;;;;;33.78;24.39;93851.69;5110346;28;20046;-39
2022/06/15 11:14:52;;;;;;;1.73;1.63;;;;;;;33.22;25.61;93847.97;5110317;28;20016;-40
2022/06/15 11:20:24;;;;;;;4.75;1.77;;;;;;;32.37;25.79;93855.03;5110607;28;20034;-39
2022/06/15 11:22:53;;;;;;;2.85;2.20;;;;;;;31.97;29.41;93849.25;5110163;28;20138;-39
2022/06/15 11:25:22;;;;;;;3.42;2.58;;;;;;;31.55;30.98;93848.34;5110477;28;20034;-39
2022/06/15 11:27:52;;;;;;;2.95;2.70;;;;;;;30.99;29.52;93847.72;5108994;28;20020;-39
2022/06/15 11:30:27;;;;;;;3.28;2.28;;;;;;;30.62;32.37;93842.50;5112252;28;20015;-39
2022/06/15 11:33:02;;;;;;;2.85;2.42;;;;;;;30.21;29.87;93846.38;5112974;28;20015;-40
2022/06/15 11:35:34;;;;;;;2.67;2.47;;;;;;;30.09;29.86;93848.91;5114283;28;20467;-39
2022/06/15 11:38:21;;;;;;;2.90;2.70;;;;;;;29.77;32.81;93834.50;5112839;28;20059;-39
2022/06/15 11:40:51;;;;;;;5.30;2.83;;;;;;;29.52;35.45;93846.50;5113053;28;20099;-39
2022/06/15 11:43:24;;;;;;;4.82;2.65;;;;;;;29.05;32.62;93838.66;5112575;28;20679;-40
2022/06/15 11:46:14;;;;;;;2.83;2.58;;;;;;;28.29;33.35;93833.28;5114093;28;20034;-39
2022/06/15 11:48:51;;;;;;;3.92;2.63;;;;;;;28.38;36.67;93838.56;5113751;28;20061;-39
2022/06/15 11:51:23;;;;;;;4.75;2.58;;;;;;;28.02;35.54;93836.59;5110349;28;20016;-39
2022/06/15 11:54:26;;;;;;;6.03;3.08;;;;;;;27.88;34.72;93845.31;5093056;28;20063;-39
2022/06/15 11:57:06;;;;;;;3.50;3.20;;;;;;;27.79;37.46;93840.72;5093190;28;20569;-38
2022/06/15 11:59:43;;;;;;;3.45;2.80;;;;;;;27.64;36.18;93836.63;5102963;28;20164;-39
2022/06/15 12:02:08;;;;;;;4.32;2.40;;;;;;;27.14;34.88;93842.50;5112396;28;20168;-41
2022/06/15 12:04:56;;;;;;;3.63;2.63;;;;;;;26.97;40.85;93833.34;5113687;28;20509;-38
2022/06/15 12:07:28;;;;;;;;;;;;;;;27.01;37.97;93829.94;5114074;28;20016;-41
2022/06/15 12:10:09;;;;;;;3.60;2.55;;;;;;;26.86;35.89;93833.59;5113427;28;20341;-38
2022/06/15 12:12:48;;;;;;;4.00;3.30;;;;;;;27.03;40.10;93833.59;5111780;28;20028;-41
2022/06/15 12:15:22;;;;;;;9.90;3.55;;;;;;;26.96;39.28;93839.69;5112262;28;20029;-39
2022/06/15 12:18:22;;;;;;;6.43;3.55;;;;;;;26.96;38.55;93834.72;5112306;28;20500;-39
2022/06/15 12:20:52;;;;;;;5.85;3.22;;;;;;;26.95;40.60;93833.28;5112020;28;20024;-40
2022/06/15 12:23:36;;;;;;;5.65;3.97;;;;;;;27.13;40.38;93838.94;5113004;28;20504;-41